createdAt,value
2018-07-01T00:01:53.655Z,49.10
2018-07-01T00:06:56.291Z,49.50
2018-07-01T00:11:58.914Z,51.00
2018-07-01T00:17:01.596Z,50.40
2018-07-01T00:22:04.278Z,49.20
2018-07-01T00:27:07.250Z,48.70
2018-07-01T00:32:09.897Z,49.20
2018-07-01T00:37:13.301Z,50.50
2018-07-01T00:42:16.118Z,50.80
2018-07-01T00:47:18.753Z,51.80
2018-07-01T00:52:21.414Z,51.80
2018-07-01T00:57:24.015Z,51.70
2018-07-01T01:02:27.199Z,52.00
2018-07-01T01:07:29.869Z,51.30
2018-07-01T01:12:32.495Z,52.00
2018-07-01T01:17:35.154Z,52.80
2018-07-01T01:22:37.790Z,52.70
2018-07-01T01:27:40.849Z,54.80
2018-07-01T01:32:43.599Z,54.10
2018-07-01T01:37:46.286Z,54.50
2018-07-01T01:42:54.842Z,54.40
2018-07-01T01:48:01.425Z,54.50
2018-07-01T01:53:09.534Z,55.00
2018-07-01T01:58:18.834Z,56.10
2018-07-01T02:03:27.302Z,56.80
2018-07-01T02:08:33.080Z,56.90
2018-07-01T02:13:37.526Z,56.80
2018-07-01T02:18:40.269Z,57.40
2018-07-01T02:23:52.558Z,56.20
2018-07-01T02:28:55.218Z,56.50
2018-07-01T02:33:57.814Z,56.30
2018-07-01T02:39:00.558Z,57.00
2018-07-01T02:44:03.284Z,56.10
2018-07-01T02:49:05.982Z,55.70
2018-07-01T02:54:08.709Z,56.00
2018-07-01T02:59:11.431Z,56.30
2018-07-01T03:04:14.080Z,56.50
2018-07-01T03:09:16.739Z,56.90
2018-07-01T03:14:19.382Z,56.30
2018-07-01T03:19:21.991Z,56.50
2018-07-01T03:24:24.641Z,57.30
2018-07-01T03:29:27.268Z,57.60
2018-07-01T03:34:29.876Z,57.30
2018-07-01T03:39:32.565Z,57.50
2018-07-01T03:44:35.256Z,57.70
2018-07-01T03:49:37.838Z,57.40
2018-07-01T03:54:40.634Z,58.20
2018-07-01T03:59:43.273Z,58.40
2018-07-01T04:04:46.119Z,58.40
2018-07-01T04:09:48.702Z,58.60
2018-07-01T04:14:51.341Z,58.40
2018-07-01T04:19:53.976Z,58.40
2018-07-01T04:24:56.610Z,58.40
2018-07-01T04:29:59.220Z,58.50
2018-07-01T04:35:01.851Z,58.20
2018-07-01T04:40:04.602Z,58.80
2018-07-01T04:45:07.290Z,59.10
2018-07-01T04:50:09.896Z,58.20
2018-07-01T04:55:12.702Z,58.70
2018-07-01T05:00:15.375Z,58.40
2018-07-01T05:05:18.022Z,58.40
2018-07-01T05:10:20.620Z,58.30
2018-07-01T05:15:23.238Z,58.70
2018-07-01T05:20:25.846Z,58.40
2018-07-01T05:25:28.462Z,58.80
2018-07-01T05:30:31.066Z,58.30
2018-07-01T05:35:33.821Z,57.80
2018-07-01T05:40:36.442Z,57.90
2018-07-01T05:45:39.051Z,58.10
2018-07-01T05:50:41.671Z,58.30
2018-07-01T05:55:44.302Z,57.40
2018-07-01T06:00:46.899Z,57.70
2018-07-01T06:05:49.503Z,57.90
2018-07-01T06:10:52.139Z,58.00
2018-07-01T06:15:54.767Z,57.90
2018-07-01T06:20:57.414Z,56.10
2018-07-01T06:26:00.067Z,56.00
2018-07-01T06:31:02.763Z,56.00
2018-07-01T06:36:05.438Z,54.50
2018-07-01T06:41:08.195Z,54.70
2018-07-01T06:46:10.893Z,54.40
2018-07-01T06:51:13.499Z,54.60
2018-07-01T06:56:16.155Z,54.80
2018-07-01T07:01:18.811Z,52.70
2018-07-01T07:06:21.583Z,52.80
2018-07-01T07:11:24.192Z,52.00
2018-07-01T07:21:29.323Z,50.70
2018-07-01T07:26:32.142Z,50.40
2018-07-01T07:31:34.782Z,49.40
2018-07-01T07:36:37.405Z,49.40
2018-07-01T07:41:40.659Z,49.50
2018-07-01T07:46:43.299Z,49.70
2018-07-01T07:51:45.918Z,47.30
2018-07-01T07:56:48.519Z,47.90
2018-07-01T08:01:51.612Z,48.00
2018-07-01T08:06:54.434Z,46.40
2018-07-01T08:11:57.038Z,46.80
2018-07-01T08:16:59.683Z,44.60
2018-07-01T08:22:02.440Z,44.10
2018-07-01T08:27:05.144Z,42.80
2018-07-01T08:32:07.893Z,43.40
2018-07-01T08:37:10.546Z,42.50
2018-07-01T08:42:21.132Z,42.10
2018-07-01T08:47:23.728Z,41.70
2018-07-01T08:52:26.529Z,41.50
2018-07-01T08:57:29.218Z,39.70
2018-07-01T09:02:31.872Z,40.10
2018-07-01T09:07:34.583Z,40.40
2018-07-01T09:12:37.596Z,39.90
2018-07-01T09:17:40.282Z,38.40
2018-07-01T09:22:42.942Z,38.10
2018-07-01T09:27:45.611Z,38.70
2018-07-01T09:37:50.770Z,36.30
2018-07-01T09:42:53.577Z,35.40
2018-07-01T09:47:56.563Z,37.50
2018-07-01T09:52:59.589Z,34.10
2018-07-01T09:58:02.277Z,34.40
2018-07-01T10:03:05.379Z,34.30
2018-07-01T10:08:08.015Z,35.30
2018-07-01T10:13:10.642Z,32.10
2018-07-01T10:18:13.286Z,31.00
2018-07-01T10:23:15.927Z,30.70
2018-07-01T10:28:18.667Z,31.00
2018-07-01T10:33:21.441Z,28.20
2018-07-01T10:38:24.208Z,29.00
2018-07-01T10:43:28.259Z,28.60
2018-07-01T10:48:31.029Z,28.40
2018-07-01T10:53:33.699Z,29.00
2018-07-01T10:58:36.311Z,27.80
2018-07-01T11:03:39.035Z,26.70
2018-07-01T11:08:41.674Z,24.90
2018-07-01T11:13:44.346Z,24.40
2018-07-01T11:18:47.011Z,24.90
2018-07-01T11:23:49.773Z,23.70
2018-07-01T11:28:52.551Z,22.90
2018-07-01T11:33:55.179Z,23.20
2018-07-01T11:38:57.811Z,23.20
2018-07-01T11:44:00.455Z,23.90
2018-07-01T11:49:03.469Z,21.10
2018-07-01T11:54:06.362Z,21.60
2018-07-01T11:59:09.118Z,21.90
2018-07-01T12:04:11.939Z,21.10
2018-07-01T12:09:14.620Z,19.90
2018-07-01T12:14:17.266Z,18.90
2018-07-01T12:19:20.764Z,19.10
2018-07-01T12:24:23.403Z,18.80
2018-07-01T12:29:26.029Z,18.70
2018-07-01T12:34:28.659Z,18.60
2018-07-01T12:39:31.339Z,18.40
2018-07-01T12:44:33.949Z,17.60
2018-07-01T12:49:36.748Z,18.00
2018-07-01T12:54:39.390Z,17.70
2018-07-01T12:59:42.069Z,16.60
2018-07-01T13:09:47.290Z,16.90
2018-07-01T13:14:49.894Z,16.30
2018-07-01T13:19:52.531Z,15.90
2018-07-01T13:24:55.123Z,16.60
2018-07-01T13:29:58.221Z,15.80
2018-07-01T13:35:00.896Z,15.60
2018-07-01T13:40:03.746Z,15.10
2018-07-01T13:45:07.542Z,15.40
2018-07-01T13:50:10.286Z,15.30
2018-07-01T13:55:13.100Z,15.30
2018-07-01T14:00:15.869Z,16.10
2018-07-01T14:05:18.572Z,15.30
2018-07-01T14:10:21.244Z,14.90
2018-07-01T14:15:23.951Z,15.70
2018-07-01T14:20:26.641Z,15.20
2018-07-01T14:25:29.307Z,14.50
2018-07-01T14:30:31.982Z,13.90
2018-07-01T14:35:34.712Z,14.30
2018-07-01T14:40:37.335Z,14.70
2018-07-01T14:45:39.974Z,15.30
2018-07-01T14:50:42.925Z,15.20
2018-07-01T14:55:45.583Z,13.90
2018-07-01T15:00:48.237Z,15.20
2018-07-01T15:05:51.023Z,14.10
2018-07-01T15:15:56.306Z,14.10
2018-07-01T15:20:58.999Z,13.60
2018-07-01T15:26:01.934Z,13.20
2018-07-01T15:31:04.600Z,13.60
2018-07-01T15:36:07.609Z,13.70
2018-07-01T15:41:10.374Z,14.30
2018-07-01T15:46:13.140Z,14.20
2018-07-01T15:51:15.849Z,13.70
2018-07-01T15:56:18.489Z,14.30
2018-07-01T16:01:21.181Z,14.30
2018-07-01T16:06:23.901Z,14.20
2018-07-01T16:11:26.643Z,14.50
2018-07-01T16:16:29.295Z,14.30
2018-07-01T16:21:31.930Z,15.00
2018-07-01T16:26:40.383Z,15.20
2018-07-01T16:31:43.034Z,15.40
2018-07-01T16:36:45.687Z,14.90
2018-07-01T16:41:48.337Z,14.70
2018-07-01T16:46:50.935Z,14.70
2018-07-01T16:51:53.791Z,15.20
2018-07-01T16:56:56.425Z,15.80
2018-07-01T17:01:59.090Z,16.30
2018-07-01T17:12:04.363Z,15.70
2018-07-01T17:17:07.188Z,16.50
2018-07-01T17:22:09.856Z,16.20
2018-07-01T17:27:12.774Z,17.10
2018-07-01T17:32:21.088Z,17.90
2018-07-01T17:37:23.717Z,18.40
2018-07-01T17:42:26.347Z,20.70
2018-07-01T17:47:28.996Z,22.60
2018-07-01T17:52:31.643Z,24.50
2018-07-01T17:57:34.293Z,25.00
2018-07-01T18:02:36.949Z,23.70
2018-07-01T18:07:39.671Z,24.30
2018-07-01T18:12:42.423Z,26.00
2018-07-01T18:17:45.031Z,27.00
2018-07-01T18:28:03.603Z,28.70
2018-07-01T18:32:53.186Z,29.30
2018-07-01T18:37:55.839Z,31.30
2018-07-01T18:42:58.490Z,31.20
2018-07-01T18:48:01.149Z,31.40
2018-07-01T18:53:03.840Z,31.90
2018-07-01T18:58:06.444Z,32.90
2018-07-01T19:03:09.128Z,33.70
2018-07-01T19:08:11.811Z,33.70
2018-07-01T19:13:14.475Z,32.90
2018-07-01T19:18:18.126Z,34.90
2018-07-01T19:23:20.731Z,35.50
2018-07-01T19:28:23.395Z,36.10
2018-07-01T19:33:26.040Z,37.20
2018-07-01T19:38:28.681Z,38.50
2018-07-01T19:43:31.608Z,39.50
2018-07-01T19:48:34.127Z,40.40
2018-07-01T19:53:36.899Z,42.20
2018-07-01T19:58:39.514Z,42.00
2018-07-01T20:03:42.199Z,43.00
2018-07-01T20:08:45.884Z,43.40
2018-07-01T20:13:48.636Z,43.30
2018-07-01T20:18:51.289Z,44.60
2018-07-01T20:23:54.033Z,44.50
2018-07-01T20:28:56.679Z,44.90
2018-07-01T20:33:59.415Z,44.00
2018-07-01T20:39:02.477Z,46.00
2018-07-01T20:44:05.159Z,46.60
2018-07-01T20:49:07.833Z,46.90
2018-07-01T20:54:10.811Z,48.00
2018-07-01T20:59:13.478Z,49.10
2018-07-01T21:04:16.181Z,48.00
2018-07-01T21:09:18.835Z,50.20
2018-07-01T21:14:21.590Z,49.60
2018-07-01T21:19:24.407Z,49.30
2018-07-01T21:24:27.051Z,49.90
2018-07-01T21:29:29.694Z,50.70
2018-07-01T21:34:32.481Z,50.20
2018-07-01T21:39:35.183Z,51.80
2018-07-01T21:44:37.790Z,53.80
2018-07-01T21:49:40.447Z,53.30
2018-07-01T21:54:43.070Z,53.80
2018-07-01T21:59:45.812Z,53.10
2018-07-01T22:04:48.444Z,52.40
2018-07-01T22:09:51.346Z,52.90
2018-07-01T22:15:10.195Z,54.00
2018-07-01T22:20:13.149Z,54.30
2018-07-01T22:25:15.875Z,54.40
2018-07-01T22:30:18.527Z,55.00
2018-07-01T22:35:21.200Z,54.00
2018-07-01T22:40:23.766Z,54.70
2018-07-01T22:45:26.378Z,53.60
2018-07-01T22:50:29.118Z,53.90
2018-07-01T22:55:31.758Z,54.40
2018-07-01T23:00:35.199Z,55.10
2018-07-01T23:05:37.768Z,55.50
2018-07-01T23:10:40.407Z,56.40
2018-07-01T23:15:43.047Z,56.50
2018-07-01T23:20:45.687Z,57.40
2018-07-01T23:25:48.310Z,56.50
2018-07-01T23:30:50.940Z,56.70
2018-07-01T23:35:53.554Z,56.60
2018-07-01T23:40:56.218Z,55.10
2018-07-01T23:45:58.858Z,54.60
2018-07-01T23:51:01.514Z,54.00
2018-07-01T23:56:04.630Z,54.40
